createdAt,value
2019-02-16T10:30:42.502Z,2.40
2019-02-16T10:33:25.086Z,1.50
2019-02-16T10:36:00.340Z,1.53
2019-02-16T10:38:41.715Z,1.47
2019-02-16T10:41:15.274Z,1.50
2019-02-16T10:45:51.962Z,1.60
2019-02-16T10:48:27.341Z,1.97
2019-02-16T10:51:00.975Z,1.90
2019-02-16T10:53:40.520Z,1.50
2019-02-16T10:56:32.423Z,1.83
2019-02-16T11:43:03.315Z,1.00
2019-02-16T11:45:41.835Z,0.87
2019-02-16T11:48:18.287Z,1.10
2019-02-16T11:50:50.853Z,0.70
2019-02-16T11:53:25.198Z,0.80
2019-02-16T11:56:02.466Z,0.90
2019-02-16T11:58:35.988Z,0.93
2019-02-16T12:01:42.310Z,1.10
2019-02-16T12:04:17.435Z,0.90
2019-02-16T12:07:00.364Z,0.90
2019-02-16T12:09:36.233Z,1.00
2019-02-16T12:12:09.281Z,1.13
2019-02-16T12:16:45.503Z,0.93
2019-02-16T12:19:22.021Z,0.80
2019-02-16T12:22:00.929Z,1.00
2019-02-16T12:25:37.643Z,0.90
2019-02-16T12:28:15.845Z,1.17
2019-02-16T12:30:48.193Z,0.77
2019-02-16T12:33:22.769Z,0.90
2019-02-16T12:35:58.212Z,1.30
2019-02-16T12:38:31.425Z,0.93
2019-02-16T12:41:05.661Z,0.80
2019-02-16T12:43:42.839Z,1.00
2019-02-16T12:46:16.100Z,1.67
2019-02-16T12:49:55.271Z,0.70
2019-02-16T12:52:35.531Z,0.50
2019-02-16T12:55:14.500Z,0.60
2019-02-16T12:57:40.560Z,1.17
2019-02-16T13:01:23.491Z,1.00
2019-02-16T13:04:00.000Z,1.20
2019-02-16T13:10:49.995Z,0.73
2019-02-16T13:13:30.172Z,1.00
2019-02-16T13:16:13.112Z,0.90
2019-02-16T13:18:50.095Z,0.90
2019-02-16T13:21:26.284Z,1.00
2019-02-16T13:23:59.629Z,0.87
2019-02-16T13:26:33.926Z,0.90
2019-02-16T13:29:29.726Z,1.00
2019-02-16T13:32:04.916Z,0.90
2019-02-16T13:34:38.236Z,0.80
2019-02-16T13:37:25.800Z,0.63
2019-02-16T13:40:02.772Z,0.60
2019-02-16T13:42:46.794Z,0.63
2019-02-16T13:45:19.287Z,0.90
2019-02-16T13:47:52.376Z,0.80
2019-02-16T13:50:28.710Z,0.97
2019-02-16T13:53:02.306Z,0.70
2019-02-16T13:55:41.537Z,0.77
2019-02-16T13:58:21.915Z,0.80
2019-02-16T14:00:55.074Z,0.80
2019-02-16T14:03:28.831Z,0.80
2019-02-16T14:06:03.533Z,0.80
2019-02-16T14:08:37.397Z,0.70
2019-02-16T14:11:25.612Z,1.03
2019-02-16T14:14:04.171Z,0.73
2019-02-16T14:18:40.410Z,1.00
2019-02-16T14:21:08.774Z,0.90
2019-02-16T14:23:37.384Z,0.90
2019-02-16T14:26:05.347Z,0.93
2019-02-16T14:28:33.340Z,1.07
2019-02-16T14:31:01.725Z,1.10
2019-02-16T14:33:32.193Z,0.80
2019-02-16T14:36:00.171Z,0.90
2019-02-16T14:38:41.471Z,1.10
2019-02-16T14:41:09.436Z,1.00
2019-02-16T14:43:37.408Z,1.00
2019-02-16T14:46:05.371Z,0.70
2019-02-16T14:48:33.331Z,0.60
2019-02-16T14:51:01.400Z,0.80
2019-02-16T14:53:29.386Z,0.80
2019-02-16T14:55:57.372Z,1.00
2019-02-16T14:58:25.417Z,0.93
2019-02-16T15:00:53.695Z,1.17
2019-02-16T15:03:21.860Z,0.80
2019-02-16T15:05:49.892Z,1.40
2019-02-16T15:08:17.852Z,1.13
2019-02-16T15:10:45.910Z,1.17
2019-02-16T15:13:13.859Z,1.00
2019-02-16T15:15:41.836Z,1.10
2019-02-16T15:18:09.824Z,1.37
2019-02-16T15:20:37.783Z,0.80
2019-02-16T15:23:05.760Z,1.10
2019-02-16T15:25:33.744Z,0.80
2019-02-16T15:28:01.737Z,0.90
2019-02-16T15:30:29.776Z,0.90
2019-02-16T15:32:57.744Z,1.03
2019-02-16T15:35:25.774Z,1.20
2019-02-16T15:37:53.762Z,1.03
2019-02-16T15:40:22.231Z,1.10
2019-02-16T15:42:50.293Z,0.97
2019-02-16T15:45:18.553Z,0.90
2019-02-16T15:47:46.525Z,1.00
2019-02-16T15:50:14.854Z,0.93
2019-02-16T15:52:44.400Z,0.80
2019-02-16T15:55:12.512Z,1.20
2019-02-16T15:57:42.831Z,0.90
2019-02-16T16:00:17.359Z,0.73
2019-02-16T16:02:45.592Z,1.10
2019-02-16T16:05:13.774Z,0.90
2019-02-16T16:07:42.196Z,0.80
2019-02-16T16:10:18.013Z,1.03
2019-02-16T16:12:53.452Z,0.87
2019-02-16T16:15:26.947Z,0.80
2019-02-16T16:18:00.300Z,0.80
